sensor_id;sensor_type;location;lat;lon;timestamp;P1;durP1;ratioP1;P2;durP2;ratioP2
3259;SDS011;22469;48.150;14.004;2022-11-21T00:03:48;4.57;;;4.17;;
3259;SDS011;22469;48.150;14.004;2022-11-21T00:06:16;5.67;;;5.10;;
3259;SDS011;22469;48.150;14.004;2022-11-21T00:08:45;4.93;;;4.63;;
3259;SDS011;22469;48.150;14.004;2022-11-21T00:11:12;4.70;;;4.50;;
3259;SDS011;22469;48.150;14.004;2022-11-21T00:13:40;6.30;;;5.70;;
3259;SDS011;22469;48.150;14.004;2022-11-21T00:16:09;6.03;;;4.87;;
3259;SDS011;22469;48.150;14.004;2022-11-21T00:18:40;4.73;;;4.43;;
3259;SDS011;22469;48.150;14.004;2022-11-21T00:21:14;4.57;;;4.27;;
3259;SDS011;22469;48.150;14.004;2022-11-21T00:23:43;6.37;;;4.70;;
3259;SDS011;22469;48.150;14.004;2022-11-21T00:26:13;6.13;;;4.50;;
3259;SDS011;22469;48.150;14.004;2022-11-21T00:28:41;6.53;;;5.30;;
3259;SDS011;22469;48.150;14.004;2022-11-21T00:31:16;5.23;;;4.83;;
3259;SDS011;22469;48.150;14.004;2022-11-21T00:33:48;6.57;;;5.50;;
3259;SDS011;22469;48.150;14.004;2022-11-21T00:36:15;5.20;;;4.80;;
3259;SDS011;22469;48.150;14.004;2022-11-21T00:38:42;4.90;;;4.60;;
3259;SDS011;22469;48.150;14.004;2022-11-21T00:41:09;5.10;;;4.70;;
3259;SDS011;22469;48.150;14.004;2022-11-21T00:43:36;5.40;;;4.90;;
3259;SDS011;22469;48.150;14.004;2022-11-21T00:46:03;4.80;;;4.40;;
3259;SDS011;22469;48.150;14.004;2022-11-21T00:48:30;5.43;;;5.07;;
3259;SDS011;22469;48.150;14.004;2022-11-21T00:50:58;5.10;;;4.70;;
3259;SDS011;22469;48.150;14.004;2022-11-21T00:53:26;5.60;;;5.20;;
3259;SDS011;22469;48.150;14.004;2022-11-21T00:55:54;5.20;;;4.80;;
3259;SDS011;22469;48.150;14.004;2022-11-21T00:58:21;5.47;;;5.07;;
3259;SDS011;22469;48.150;14.004;2022-11-21T01:00:49;4.67;;;4.37;;
3259;SDS011;22469;48.150;14.004;2022-11-21T01:03:16;4.60;;;4.20;;
3259;SDS011;22469;48.150;14.004;2022-11-21T01:05:43;5.07;;;4.37;;
3259;SDS011;22469;48.150;14.004;2022-11-21T01:08:10;5.53;;;5.23;;
3259;SDS011;22469;48.150;14.004;2022-11-21T01:10:37;5.10;;;4.80;;
3259;SDS011;22469;48.150;14.004;2022-11-21T01:13:04;5.07;;;4.77;;
3259;SDS011;22469;48.150;14.004;2022-11-21T01:15:32;5.00;;;4.70;;
3259;SDS011;22469;48.150;14.004;2022-11-21T01:17:59;6.20;;;5.70;;
3259;SDS011;22469;48.150;14.004;2022-11-21T01:20:26;4.83;;;4.53;;
3259;SDS011;22469;48.150;14.004;2022-11-21T01:22:53;5.10;;;4.60;;
3259;SDS011;22469;48.150;14.004;2022-11-21T01:25:20;4.50;;;4.20;;
3259;SDS011;22469;48.150;14.004;2022-11-21T01:27:47;4.03;;;3.73;;
3259;SDS011;22469;48.150;14.004;2022-11-21T01:30:14;4.10;;;3.80;;
3259;SDS011;22469;48.150;14.004;2022-11-21T01:32:41;4.07;;;3.77;;
3259;SDS011;22469;48.150;14.004;2022-11-21T01:35:08;4.10;;;3.80;;
3259;SDS011;22469;48.150;14.004;2022-11-21T01:37:35;3.83;;;3.53;;
3259;SDS011;22469;48.150;14.004;2022-11-21T01:40:02;4.40;;;4.00;;
3259;SDS011;22469;48.150;14.004;2022-11-21T01:42:42;4.60;;;4.20;;
3259;SDS011;22469;48.150;14.004;2022-11-21T01:48:24;3.77;;;3.57;;
3259;SDS011;22469;48.150;14.004;2022-11-21T01:51:00;3.80;;;3.57;;
3259;SDS011;22469;48.150;14.004;2022-11-21T01:53:50;3.77;;;3.57;;
3259;SDS011;22469;48.150;14.004;2022-11-21T01:56:39;3.73;;;3.43;;
3259;SDS011;22469;48.150;14.004;2022-11-21T01:59:26;4.73;;;4.33;;
3259;SDS011;22469;48.150;14.004;2022-11-21T02:02:06;3.20;;;3.10;;
3259;SDS011;22469;48.150;14.004;2022-11-21T02:04:36;4.13;;;3.83;;
3259;SDS011;22469;48.150;14.004;2022-11-21T02:07:05;2.73;;;2.53;;
3259;SDS011;22469;48.150;14.004;2022-11-21T02:09:35;2.80;;;2.67;;
3259;SDS011;22469;48.150;14.004;2022-11-21T02:12:12;2.87;;;2.77;;
3259;SDS011;22469;48.150;14.004;2022-11-21T02:14:47;2.90;;;2.70;;
3259;SDS011;22469;48.150;14.004;2022-11-21T02:17:16;3.23;;;3.03;;
3259;SDS011;22469;48.150;14.004;2022-11-21T02:25:29;2.13;;;2.03;;
3259;SDS011;22469;48.150;14.004;2022-11-21T02:28:04;2.63;;;2.43;;
3259;SDS011;22469;48.150;14.004;2022-11-21T02:30:38;10.73;;;2.83;;
3259;SDS011;22469;48.150;14.004;2022-11-21T02:33:07;2.33;;;2.23;;
3259;SDS011;22469;48.150;14.004;2022-11-21T02:35:35;2.13;;;2.03;;
3259;SDS011;22469;48.150;14.004;2022-11-21T02:38:06;2.33;;;2.23;;
3259;SDS011;22469;48.150;14.004;2022-11-21T02:41:10;2.23;;;2.13;;
3259;SDS011;22469;48.150;14.004;2022-11-21T02:43:43;2.00;;;1.90;;
3259;SDS011;22469;48.150;14.004;2022-11-21T02:46:17;2.23;;;2.13;;
3259;SDS011;22469;48.150;14.004;2022-11-21T02:48:44;2.10;;;2.00;;
3259;SDS011;22469;48.150;14.004;2022-11-21T02:51:12;2.70;;;2.50;;
3259;SDS011;22469;48.150;14.004;2022-11-21T02:53:39;2.00;;;1.90;;
3259;SDS011;22469;48.150;14.004;2022-11-21T02:56:06;2.07;;;2.07;;
3259;SDS011;22469;48.150;14.004;2022-11-21T02:58:33;1.70;;;1.60;;
3259;SDS011;22469;48.150;14.004;2022-11-21T03:01:00;2.30;;;2.20;;
3259;SDS011;22469;48.150;14.004;2022-11-21T03:03:27;2.33;;;2.23;;
3259;SDS011;22469;48.150;14.004;2022-11-21T03:05:54;2.70;;;2.60;;
3259;SDS011;22469;48.150;14.004;2022-11-21T03:08:22;2.17;;;2.07;;
3259;SDS011;22469;48.150;14.004;2022-11-21T03:10:49;2.03;;;1.97;;
3259;SDS011;22469;48.150;14.004;2022-11-21T03:13:16;2.43;;;2.23;;
3259;SDS011;22469;48.150;14.004;2022-11-21T03:15:43;2.40;;;2.17;;
3259;SDS011;22469;48.150;14.004;2022-11-21T03:18:10;2.50;;;2.37;;
3259;SDS011;22469;48.150;14.004;2022-11-21T03:20:37;3.00;;;2.80;;
3259;SDS011;22469;48.150;14.004;2022-11-21T03:23:04;2.40;;;2.30;;
3259;SDS011;22469;48.150;14.004;2022-11-21T03:25:31;3.40;;;3.20;;
3259;SDS011;22469;48.150;14.004;2022-11-21T03:27:58;2.63;;;2.53;;
3259;SDS011;22469;48.150;14.004;2022-11-21T03:30:25;2.30;;;2.20;;
3259;SDS011;22469;48.150;14.004;2022-11-21T03:32:56;2.57;;;2.47;;
3259;SDS011;22469;48.150;14.004;2022-11-21T03:35:24;2.47;;;2.37;;
3259;SDS011;22469;48.150;14.004;2022-11-21T03:37:51;1.73;;;1.73;;
3259;SDS011;22469;48.150;14.004;2022-11-21T03:40:19;2.20;;;2.10;;
3259;SDS011;22469;48.150;14.004;2022-11-21T03:42:46;2.40;;;2.20;;
3259;SDS011;22469;48.150;14.004;2022-11-21T03:45:13;1.63;;;1.63;;
3259;SDS011;22469;48.150;14.004;2022-11-21T03:47:40;2.10;;;2.00;;
3259;SDS011;22469;48.150;14.004;2022-11-21T03:50:07;1.90;;;1.70;;
3259;SDS011;22469;48.150;14.004;2022-11-21T03:52:35;1.87;;;1.80;;
3259;SDS011;22469;48.150;14.004;2022-11-21T03:55:02;1.60;;;1.50;;
3259;SDS011;22469;48.150;14.004;2022-11-21T03:57:29;1.73;;;1.73;;
3259;SDS011;22469;48.150;14.004;2022-11-21T03:59:56;2.60;;;2.43;;
3259;SDS011;22469;48.150;14.004;2022-11-21T04:02:23;1.50;;;1.50;;
3259;SDS011;22469;48.150;14.004;2022-11-21T04:04:50;1.80;;;1.70;;
3259;SDS011;22469;48.150;14.004;2022-11-21T04:07:16;1.80;;;1.70;;
3259;SDS011;22469;48.150;14.004;2022-11-21T04:09:44;1.90;;;1.80;;
3259;SDS011;22469;48.150;14.004;2022-11-21T04:12:10;1.57;;;1.47;;
3259;SDS011;22469;48.150;14.004;2022-11-21T04:14:37;1.70;;;1.60;;
3259;SDS011;22469;48.150;14.004;2022-11-21T04:17:04;1.80;;;1.80;;
3259;SDS011;22469;48.150;14.004;2022-11-21T04:19:31;1.40;;;1.40;;
3259;SDS011;22469;48.150;14.004;2022-11-21T04:21:58;1.87;;;1.57;;
3259;SDS011;22469;48.150;14.004;2022-11-21T04:24:25;1.43;;;1.43;;
3259;SDS011;22469;48.150;14.004;2022-11-21T04:26:53;1.43;;;1.33;;
3259;SDS011;22469;48.150;14.004;2022-11-21T04:29:21;1.40;;;1.40;;
3259;SDS011;22469;48.150;14.004;2022-11-21T04:31:48;1.47;;;1.40;;
3259;SDS011;22469;48.150;14.004;2022-11-21T04:34:15;1.77;;;1.77;;
3259;SDS011;22469;48.150;14.004;2022-11-21T04:36:42;1.57;;;1.57;;
3259;SDS011;22469;48.150;14.004;2022-11-21T04:39:09;1.47;;;1.37;;
3259;SDS011;22469;48.150;14.004;2022-11-21T04:41:36;1.70;;;1.60;;
3259;SDS011;22469;48.150;14.004;2022-11-21T04:44:02;1.73;;;1.60;;
3259;SDS011;22469;48.150;14.004;2022-11-21T04:46:30;1.40;;;1.40;;
3259;SDS011;22469;48.150;14.004;2022-11-21T04:48:57;1.73;;;1.73;;
3259;SDS011;22469;48.150;14.004;2022-11-21T04:51:24;1.30;;;1.30;;
3259;SDS011;22469;48.150;14.004;2022-11-21T04:53:51;1.80;;;1.70;;
3259;SDS011;22469;48.150;14.004;2022-11-21T04:56:18;1.40;;;1.30;;
3259;SDS011;22469;48.150;14.004;2022-11-21T04:58:45;1.67;;;1.57;;
3259;SDS011;22469;48.150;14.004;2022-11-21T05:01:12;1.50;;;1.40;;
3259;SDS011;22469;48.150;14.004;2022-11-21T05:03:39;2.00;;;1.90;;
3259;SDS011;22469;48.150;14.004;2022-11-21T05:06:06;1.50;;;1.50;;
3259;SDS011;22469;48.150;14.004;2022-11-21T05:08:33;1.50;;;1.50;;
3259;SDS011;22469;48.150;14.004;2022-11-21T05:11:00;1.77;;;1.60;;
3259;SDS011;22469;48.150;14.004;2022-11-21T05:13:46;1.97;;;1.87;;
3259;SDS011;22469;48.150;14.004;2022-11-21T05:16:13;1.73;;;1.63;;
3259;SDS011;22469;48.150;14.004;2022-11-21T05:18:40;1.73;;;1.73;;
3259;SDS011;22469;48.150;14.004;2022-11-21T05:21:07;1.50;;;1.50;;
3259;SDS011;22469;48.150;14.004;2022-11-21T05:23:34;1.93;;;1.83;;
3259;SDS011;22469;48.150;14.004;2022-11-21T05:26:01;1.90;;;1.80;;
3259;SDS011;22469;48.150;14.004;2022-11-21T05:28:28;1.93;;;1.83;;
3259;SDS011;22469;48.150;14.004;2022-11-21T05:30:55;1.97;;;1.87;;
3259;SDS011;22469;48.150;14.004;2022-11-21T05:33:22;1.87;;;1.77;;
3259;SDS011;22469;48.150;14.004;2022-11-21T05:35:49;1.73;;;1.63;;
3259;SDS011;22469;48.150;14.004;2022-11-21T05:38:16;2.73;;;2.57;;
3259;SDS011;22469;48.150;14.004;2022-11-21T05:40:42;2.63;;;2.50;;
3259;SDS011;22469;48.150;14.004;2022-11-21T05:43:10;2.20;;;2.10;;
3259;SDS011;22469;48.150;14.004;2022-11-21T05:45:56;2.57;;;2.37;;
3259;SDS011;22469;48.150;14.004;2022-11-21T05:48:23;2.17;;;2.07;;
3259;SDS011;22469;48.150;14.004;2022-11-21T05:50:50;3.40;;;2.30;;
3259;SDS011;22469;48.150;14.004;2022-11-21T05:53:17;2.20;;;2.10;;
3259;SDS011;22469;48.150;14.004;2022-11-21T05:55:44;2.13;;;2.03;;
3259;SDS011;22469;48.150;14.004;2022-11-21T05:58:12;1.93;;;1.83;;
3259;SDS011;22469;48.150;14.004;2022-11-21T06:00:40;1.73;;;1.60;;
3259;SDS011;22469;48.150;14.004;2022-11-21T06:03:08;2.00;;;1.90;;
3259;SDS011;22469;48.150;14.004;2022-11-21T06:06:12;1.83;;;1.73;;
3259;SDS011;22469;48.150;14.004;2022-11-21T06:08:47;2.77;;;2.27;;
3259;SDS011;22469;48.150;14.004;2022-11-21T06:11:14;2.30;;;2.10;;
3259;SDS011;22469;48.150;14.004;2022-11-21T06:13:42;2.20;;;2.10;;
3259;SDS011;22469;48.150;14.004;2022-11-21T06:16:10;2.20;;;2.10;;
3259;SDS011;22469;48.150;14.004;2022-11-21T06:18:41;2.10;;;2.00;;
3259;SDS011;22469;48.150;14.004;2022-11-21T06:21:14;2.00;;;1.90;;
3259;SDS011;22469;48.150;14.004;2022-11-21T06:23:42;1.87;;;1.77;;
3259;SDS011;22469;48.150;14.004;2022-11-21T06:26:14;2.07;;;1.93;;
3259;SDS011;22469;48.150;14.004;2022-11-21T06:28:44;2.23;;;2.13;;
3259;SDS011;22469;48.150;14.004;2022-11-21T06:31:16;1.90;;;1.60;;
3259;SDS011;22469;48.150;14.004;2022-11-21T06:33:44;1.50;;;1.40;;
3259;SDS011;22469;48.150;14.004;2022-11-21T06:36:13;1.80;;;1.60;;
3259;SDS011;22469;48.150;14.004;2022-11-21T06:38:42;3.10;;;1.57;;
3259;SDS011;22469;48.150;14.004;2022-11-21T06:41:11;2.60;;;1.67;;
3259;SDS011;22469;48.150;14.004;2022-11-21T06:43:42;1.73;;;1.63;;
3259;SDS011;22469;48.150;14.004;2022-11-21T06:46:10;3.30;;;1.80;;
3259;SDS011;22469;48.150;14.004;2022-11-21T06:48:38;1.90;;;1.80;;
3259;SDS011;22469;48.150;14.004;2022-11-21T06:51:29;1.67;;;1.57;;
3259;SDS011;22469;48.150;14.004;2022-11-21T06:53:56;1.40;;;1.30;;
3259;SDS011;22469;48.150;14.004;2022-11-21T06:56:25;1.80;;;1.70;;
3259;SDS011;22469;48.150;14.004;2022-11-21T06:58:54;1.87;;;1.77;;
3259;SDS011;22469;48.150;14.004;2022-11-21T07:01:22;2.00;;;1.90;;
3259;SDS011;22469;48.150;14.004;2022-11-21T07:03:51;1.73;;;1.63;;
3259;SDS011;22469;48.150;14.004;2022-11-21T07:06:19;1.83;;;1.50;;
3259;SDS011;22469;48.150;14.004;2022-11-21T07:08:47;1.87;;;1.63;;
3259;SDS011;22469;48.150;14.004;2022-11-21T07:11:38;1.40;;;1.30;;
3259;SDS011;22469;48.150;14.004;2022-11-21T07:14:05;1.60;;;1.50;;
3259;SDS011;22469;48.150;14.004;2022-11-21T07:16:34;1.63;;;1.53;;
3259;SDS011;22469;48.150;14.004;2022-11-21T07:19:02;2.50;;;1.43;;
3259;SDS011;22469;48.150;14.004;2022-11-21T07:21:29;1.40;;;1.40;;
3259;SDS011;22469;48.150;14.004;2022-11-21T07:23:56;1.87;;;1.77;;
3259;SDS011;22469;48.150;14.004;2022-11-21T07:26:23;2.23;;;2.13;;
3259;SDS011;22469;48.150;14.004;2022-11-21T07:28:51;2.13;;;1.50;;
3259;SDS011;22469;48.150;14.004;2022-11-21T07:31:17;1.43;;;1.33;;
3259;SDS011;22469;48.150;14.004;2022-11-21T07:33:44;2.57;;;1.70;;
3259;SDS011;22469;48.150;14.004;2022-11-21T07:36:13;2.43;;;2.23;;
3259;SDS011;22469;48.150;14.004;2022-11-21T07:38:40;1.60;;;1.50;;
3259;SDS011;22469;48.150;14.004;2022-11-21T07:41:08;1.57;;;1.40;;
3259;SDS011;22469;48.150;14.004;2022-11-21T07:43:35;1.57;;;1.33;;
3259;SDS011;22469;48.150;14.004;2022-11-21T07:46:02;5.40;;;2.30;;
3259;SDS011;22469;48.150;14.004;2022-11-21T07:48:29;3.17;;;2.53;;
3259;SDS011;22469;48.150;14.004;2022-11-21T07:50:56;1.90;;;1.77;;
3259;SDS011;22469;48.150;14.004;2022-11-21T07:53:23;3.33;;;1.70;;
3259;SDS011;22469;48.150;14.004;2022-11-21T07:55:50;1.70;;;1.60;;
3259;SDS011;22469;48.150;14.004;2022-11-21T07:58:17;2.53;;;1.80;;
3259;SDS011;22469;48.150;14.004;2022-11-21T08:00:44;2.93;;;1.20;;
3259;SDS011;22469;48.150;14.004;2022-11-21T08:03:11;1.57;;;1.30;;
3259;SDS011;22469;48.150;14.004;2022-11-21T08:05:39;1.23;;;1.20;;
3259;SDS011;22469;48.150;14.004;2022-11-21T08:08:09;1.47;;;1.37;;
3259;SDS011;22469;48.150;14.004;2022-11-21T08:10:38;1.43;;;1.33;;
3259;SDS011;22469;48.150;14.004;2022-11-21T08:13:08;1.43;;;1.30;;
3259;SDS011;22469;48.150;14.004;2022-11-21T08:15:36;1.90;;;1.00;;
3259;SDS011;22469;48.150;14.004;2022-11-21T08:18:08;0.97;;;0.97;;
3259;SDS011;22469;48.150;14.004;2022-11-21T08:20:44;5.67;;;0.97;;
3259;SDS011;22469;48.150;14.004;2022-11-21T08:23:12;1.00;;;1.00;;
3259;SDS011;22469;48.150;14.004;2022-11-21T08:25:39;3.03;;;0.90;;
3259;SDS011;22469;48.150;14.004;2022-11-21T08:28:09;1.57;;;1.47;;
3259;SDS011;22469;48.150;14.004;2022-11-21T08:30:37;1.20;;;1.10;;
3259;SDS011;22469;48.150;14.004;2022-11-21T08:33:05;2.53;;;1.27;;
3259;SDS011;22469;48.150;14.004;2022-11-21T08:35:34;1.10;;;1.10;;
3259;SDS011;22469;48.150;14.004;2022-11-21T08:38:05;1.10;;;1.10;;
3259;SDS011;22469;48.150;14.004;2022-11-21T08:40:32;1.00;;;1.00;;
3259;SDS011;22469;48.150;14.004;2022-11-21T08:43:04;1.40;;;1.00;;
3259;SDS011;22469;48.150;14.004;2022-11-21T08:45:34;1.10;;;1.10;;
3259;SDS011;22469;48.150;14.004;2022-11-21T08:48:03;1.10;;;1.10;;
3259;SDS011;22469;48.150;14.004;2022-11-21T08:50:37;2.00;;;1.73;;
3259;SDS011;22469;48.150;14.004;2022-11-21T08:53:05;0.93;;;0.93;;
3259;SDS011;22469;48.150;14.004;2022-11-21T08:55:32;2.77;;;2.07;;
3259;SDS011;22469;48.150;14.004;2022-11-21T08:57:59;2.23;;;1.03;;
3259;SDS011;22469;48.150;14.004;2022-11-21T09:00:26;2.27;;;2.17;;
3259;SDS011;22469;48.150;14.004;2022-11-21T09:02:53;1.20;;;1.20;;
3259;SDS011;22469;48.150;14.004;2022-11-21T09:05:20;1.00;;;1.00;;
3259;SDS011;22469;48.150;14.004;2022-11-21T09:07:47;1.07;;;1.07;;
3259;SDS011;22469;48.150;14.004;2022-11-21T09:10:14;1.27;;;1.20;;
3259;SDS011;22469;48.150;14.004;2022-11-21T09:12:41;1.47;;;1.37;;
3259;SDS011;22469;48.150;14.004;2022-11-21T09:15:09;2.10;;;1.90;;
3259;SDS011;22469;48.150;14.004;2022-11-21T09:17:59;3.07;;;1.70;;
3259;SDS011;22469;48.150;14.004;2022-11-21T09:20:31;1.97;;;1.40;;
3259;SDS011;22469;48.150;14.004;2022-11-21T09:23:08;1.80;;;1.80;;
3259;SDS011;22469;48.150;14.004;2022-11-21T09:25:39;1.63;;;1.57;;
3259;SDS011;22469;48.150;14.004;2022-11-21T09:28:07;1.70;;;1.60;;
3259;SDS011;22469;48.150;14.004;2022-11-21T09:30:36;1.97;;;1.87;;
3259;SDS011;22469;48.150;14.004;2022-11-21T09:33:09;2.40;;;1.33;;
3259;SDS011;22469;48.150;14.004;2022-11-21T09:35:39;2.60;;;1.30;;
3259;SDS011;22469;48.150;14.004;2022-11-21T09:38:06;1.67;;;1.57;;
3259;SDS011;22469;48.150;14.004;2022-11-21T09:40:34;1.90;;;1.80;;
3259;SDS011;22469;48.150;14.004;2022-11-21T09:46:02;2.80;;;2.03;;
3259;SDS011;22469;48.150;14.004;2022-11-21T09:48:55;3.13;;;1.30;;
3259;SDS011;22469;48.150;14.004;2022-11-21T09:51:26;4.20;;;1.87;;
3259;SDS011;22469;48.150;14.004;2022-11-21T09:54:04;1.73;;;1.63;;
3259;SDS011;22469;48.150;14.004;2022-11-21T09:56:45;1.50;;;1.40;;
3259;SDS011;22469;48.150;14.004;2022-11-21T10:01:47;1.63;;;1.53;;
3259;SDS011;22469;48.150;14.004;2022-11-21T10:04:14;1.57;;;1.50;;
3259;SDS011;22469;48.150;14.004;2022-11-21T10:06:43;1.70;;;1.60;;
3259;SDS011;22469;48.150;14.004;2022-11-21T10:12:42;1.30;;;1.30;;
3259;SDS011;22469;48.150;14.004;2022-11-21T10:21:53;3.00;;;1.50;;
3259;SDS011;22469;48.150;14.004;2022-11-21T10:24:31;1.40;;;1.40;;
3259;SDS011;22469;48.150;14.004;2022-11-21T10:27:06;1.10;;;1.07;;
3259;SDS011;22469;48.150;14.004;2022-11-21T10:30:04;2.17;;;2.07;;
3259;SDS011;22469;48.150;14.004;2022-11-21T10:32:43;2.90;;;1.67;;
3259;SDS011;22469;48.150;14.004;2022-11-21T10:35:16;1.10;;;1.07;;
3259;SDS011;22469;48.150;14.004;2022-11-21T10:45:58;1.60;;;1.50;;
3259;SDS011;22469;48.150;14.004;2022-11-21T10:48:25;1.30;;;1.20;;
3259;SDS011;22469;48.150;14.004;2022-11-21T10:53:39;1.20;;;1.20;;
3259;SDS011;22469;48.150;14.004;2022-11-21T10:56:32;1.33;;;0.93;;
3259;SDS011;22469;48.150;14.004;2022-11-21T10:59:01;1.33;;;1.23;;
3259;SDS011;22469;48.150;14.004;2022-11-21T11:01:53;1.40;;;1.40;;
3259;SDS011;22469;48.150;14.004;2022-11-21T11:04:23;1.53;;;1.53;;
3259;SDS011;22469;48.150;14.004;2022-11-21T11:06:54;2.00;;;1.30;;
3259;SDS011;22469;48.150;14.004;2022-11-21T11:09:23;1.03;;;1.03;;
3259;SDS011;22469;48.150;14.004;2022-11-21T11:15:21;1.57;;;1.47;;
3259;SDS011;22469;48.150;14.004;2022-11-21T11:17:55;1.17;;;1.17;;
3259;SDS011;22469;48.150;14.004;2022-11-21T11:25:57;1.67;;;1.60;;
3259;SDS011;22469;48.150;14.004;2022-11-21T11:28:26;1.30;;;1.30;;
3259;SDS011;22469;48.150;14.004;2022-11-21T11:31:01;1.33;;;1.23;;
3259;SDS011;22469;48.150;14.004;2022-11-21T11:33:30;1.40;;;1.30;;
3259;SDS011;22469;48.150;14.004;2022-11-21T11:39:20;1.60;;;1.50;;
3259;SDS011;22469;48.150;14.004;2022-11-21T11:42:28;1.67;;;1.50;;
3259;SDS011;22469;48.150;14.004;2022-11-21T11:45:15;3.60;;;2.67;;
3259;SDS011;22469;48.150;14.004;2022-11-21T11:48:10;1.53;;;1.43;;
3259;SDS011;22469;48.150;14.004;2022-11-21T11:50:47;1.00;;;1.00;;
3259;SDS011;22469;48.150;14.004;2022-11-21T11:58:55;1.30;;;1.30;;
3259;SDS011;22469;48.150;14.004;2022-11-21T12:04:36;1.70;;;1.60;;
3259;SDS011;22469;48.150;14.004;2022-11-21T12:07:22;2.60;;;2.40;;
3259;SDS011;22469;48.150;14.004;2022-11-21T12:10:52;10.70;;;7.77;;
3259;SDS011;22469;48.150;14.004;2022-11-21T12:13:35;2.87;;;2.67;;
3259;SDS011;22469;48.150;14.004;2022-11-21T12:16:04;2.60;;;2.50;;
3259;SDS011;22469;48.150;14.004;2022-11-21T12:19:02;2.93;;;1.37;;
3259;SDS011;22469;48.150;14.004;2022-11-21T12:21:34;1.33;;;1.33;;
3259;SDS011;22469;48.150;14.004;2022-11-21T12:24:01;1.43;;;1.23;;
3259;SDS011;22469;48.150;14.004;2022-11-21T12:41:09;1.73;;;1.63;;
3259;SDS011;22469;48.150;14.004;2022-11-21T12:49:49;3.30;;;3.10;;
3259;SDS011;22469;48.150;14.004;2022-11-21T12:53:15;4.13;;;2.80;;
3259;SDS011;22469;48.150;14.004;2022-11-21T12:57:04;3.30;;;3.00;;
3259;SDS011;22469;48.150;14.004;2022-11-21T12:59:17;5.13;;;3.80;;
3259;SDS011;22469;48.150;14.004;2022-11-21T13:02:01;4.03;;;3.83;;
3259;SDS011;22469;48.150;14.004;2022-11-21T13:04:38;3.30;;;2.73;;
3259;SDS011;22469;48.150;14.004;2022-11-21T13:07:07;3.50;;;3.30;;
3259;SDS011;22469;48.150;14.004;2022-11-21T13:09:39;1.93;;;1.83;;
3259;SDS011;22469;48.150;14.004;2022-11-21T13:12:16;2.07;;;1.93;;
3259;SDS011;22469;48.150;14.004;2022-11-21T13:15:20;2.17;;;2.07;;
3259;SDS011;22469;48.150;14.004;2022-11-21T13:18:18;3.17;;;2.97;;
3259;SDS011;22469;48.150;14.004;2022-11-21T13:20:55;2.57;;;2.37;;
3259;SDS011;22469;48.150;14.004;2022-11-21T13:23:37;3.47;;;2.13;;
3259;SDS011;22469;48.150;14.004;2022-11-21T13:26:53;3.10;;;2.90;;
3259;SDS011;22469;48.150;14.004;2022-11-21T13:29:12;3.13;;;2.47;;
3259;SDS011;22469;48.150;14.004;2022-11-21T13:31:40;1.87;;;1.17;;
3259;SDS011;22469;48.150;14.004;2022-11-21T13:36:57;1.47;;;1.10;;
3259;SDS011;22469;48.150;14.004;2022-11-21T13:42:02;1.87;;;1.77;;
3259;SDS011;22469;48.150;14.004;2022-11-21T13:44:52;3.73;;;3.63;;
3259;SDS011;22469;48.150;14.004;2022-11-21T13:47:32;1.60;;;1.50;;
3259;SDS011;22469;48.150;14.004;2022-11-21T13:53:35;3.23;;;2.70;;
3259;SDS011;22469;48.150;14.004;2022-11-21T14:02:00;2.27;;;2.17;;
3259;SDS011;22469;48.150;14.004;2022-11-21T14:08:10;3.47;;;2.63;;
3259;SDS011;22469;48.150;14.004;2022-11-21T14:10:51;7.63;;;3.10;;
3259;SDS011;22469;48.150;14.004;2022-11-21T14:13:28;5.07;;;4.67;;
3259;SDS011;22469;48.150;14.004;2022-11-21T14:16:04;2.80;;;2.00;;
3259;SDS011;22469;48.150;14.004;2022-11-21T14:18:43;3.97;;;2.17;;
3259;SDS011;22469;48.150;14.004;2022-11-21T14:21:20;3.93;;;2.80;;
3259;SDS011;22469;48.150;14.004;2022-11-21T14:23:58;3.03;;;2.37;;
3259;SDS011;22469;48.150;14.004;2022-11-21T14:26:30;2.77;;;1.83;;
3259;SDS011;22469;48.150;14.004;2022-11-21T14:29:15;2.63;;;2.53;;
3259;SDS011;22469;48.150;14.004;2022-11-21T14:31:52;6.63;;;2.00;;
3259;SDS011;22469;48.150;14.004;2022-11-21T14:34:25;1.67;;;1.57;;
3259;SDS011;22469;48.150;14.004;2022-11-21T14:36:56;2.70;;;2.47;;
3259;SDS011;22469;48.150;14.004;2022-11-21T14:39:26;2.10;;;2.00;;
3259;SDS011;22469;48.150;14.004;2022-11-21T14:42:13;2.40;;;2.20;;
3259;SDS011;22469;48.150;14.004;2022-11-21T14:44:42;2.47;;;2.30;;
3259;SDS011;22469;48.150;14.004;2022-11-21T14:47:13;2.20;;;2.10;;
3259;SDS011;22469;48.150;14.004;2022-11-21T14:49:54;2.80;;;2.60;;
3259;SDS011;22469;48.150;14.004;2022-11-21T14:52:29;2.57;;;2.37;;
3259;SDS011;22469;48.150;14.004;2022-11-21T14:54:59;4.60;;;2.67;;
3259;SDS011;22469;48.150;14.004;2022-11-21T14:57:50;3.13;;;2.23;;
3259;SDS011;22469;48.150;14.004;2022-11-21T15:00:19;2.60;;;1.77;;
3259;SDS011;22469;48.150;14.004;2022-11-21T15:03:20;3.30;;;2.20;;
3259;SDS011;22469;48.150;14.004;2022-11-21T15:05:56;6.63;;;2.60;;
3259;SDS011;22469;48.150;14.004;2022-11-21T15:08:32;2.70;;;2.40;;
3259;SDS011;22469;48.150;14.004;2022-11-21T15:11:27;3.27;;;2.70;;
3259;SDS011;22469;48.150;14.004;2022-11-21T15:14:31;2.70;;;2.50;;
3259;SDS011;22469;48.150;14.004;2022-11-21T15:17:11;5.20;;;2.70;;
3259;SDS011;22469;48.150;14.004;2022-11-21T15:19:43;3.27;;;2.70;;
3259;SDS011;22469;48.150;14.004;2022-11-21T15:22:19;3.97;;;3.07;;
3259;SDS011;22469;48.150;14.004;2022-11-21T15:25:05;3.00;;;2.40;;
3259;SDS011;22469;48.150;14.004;2022-11-21T15:27:48;2.20;;;2.10;;
3259;SDS011;22469;48.150;14.004;2022-11-21T15:30:37;6.30;;;2.80;;
3259;SDS011;22469;48.150;14.004;2022-11-21T15:35:52;3.23;;;2.57;;
3259;SDS011;22469;48.150;14.004;2022-11-21T15:38:30;1.70;;;1.60;;
3259;SDS011;22469;48.150;14.004;2022-11-21T15:46:38;1.73;;;1.63;;
3259;SDS011;22469;48.150;14.004;2022-11-21T15:49:09;1.93;;;1.83;;
3259;SDS011;22469;48.150;14.004;2022-11-21T15:51:58;2.90;;;2.80;;
3259;SDS011;22469;48.150;14.004;2022-11-21T15:54:35;2.10;;;2.00;;
3259;SDS011;22469;48.150;14.004;2022-11-21T15:57:03;6.50;;;4.53;;
3259;SDS011;22469;48.150;14.004;2022-11-21T15:59:30;2.47;;;2.30;;
3259;SDS011;22469;48.150;14.004;2022-11-21T16:01:57;4.37;;;2.57;;
3259;SDS011;22469;48.150;14.004;2022-11-21T16:04:24;2.53;;;2.33;;
3259;SDS011;22469;48.150;14.004;2022-11-21T16:06:52;2.87;;;2.57;;
3259;SDS011;22469;48.150;14.004;2022-11-21T16:09:20;2.60;;;2.50;;
3259;SDS011;22469;48.150;14.004;2022-11-21T16:11:47;3.17;;;2.73;;
3259;SDS011;22469;48.150;14.004;2022-11-21T16:14:14;3.80;;;3.23;;
3259;SDS011;22469;48.150;14.004;2022-11-21T16:16:44;3.47;;;3.17;;
3259;SDS011;22469;48.150;14.004;2022-11-21T16:19:13;3.43;;;3.07;;
3259;SDS011;22469;48.150;14.004;2022-11-21T16:21:41;3.43;;;3.13;;
3259;SDS011;22469;48.150;14.004;2022-11-21T16:24:08;3.73;;;3.30;;
3259;SDS011;22469;48.150;14.004;2022-11-21T16:26:35;4.90;;;4.50;;
3259;SDS011;22469;48.150;14.004;2022-11-21T16:29:03;5.60;;;5.10;;
3259;SDS011;22469;48.150;14.004;2022-11-21T16:31:31;6.70;;;3.60;;
3259;SDS011;22469;48.150;14.004;2022-11-21T16:33:59;4.90;;;3.70;;
3259;SDS011;22469;48.150;14.004;2022-11-21T16:36:29;5.03;;;4.63;;
3259;SDS011;22469;48.150;14.004;2022-11-21T16:38:58;5.33;;;4.70;;
3259;SDS011;22469;48.150;14.004;2022-11-21T16:41:36;5.50;;;5.00;;
3259;SDS011;22469;48.150;14.004;2022-11-21T16:44:05;6.10;;;4.33;;
3259;SDS011;22469;48.150;14.004;2022-11-21T16:46:47;5.53;;;5.13;;
3259;SDS011;22469;48.150;14.004;2022-11-21T16:49:16;5.40;;;4.90;;
3259;SDS011;22469;48.150;14.004;2022-11-21T16:51:45;5.10;;;4.60;;
3259;SDS011;22469;48.150;14.004;2022-11-21T16:54:12;6.97;;;5.53;;
3259;SDS011;22469;48.150;14.004;2022-11-21T16:56:40;5.90;;;5.20;;
3259;SDS011;22469;48.150;14.004;2022-11-21T16:59:07;7.17;;;5.83;;
3259;SDS011;22469;48.150;14.004;2022-11-21T17:01:35;9.33;;;7.27;;
3259;SDS011;22469;48.150;14.004;2022-11-21T17:04:02;8.00;;;7.20;;